Algodones, New Mexico
Current Conditions -  °F | °C
As of 2:52 AM on Wednesday 22 Oct 2014 (Local Time) from KABQ Reporting Station
Broken Clouds Broken Clouds  
Wind Chill: 53°   Ceiling: 8500
Heat Index: 53°   Visibility: 10mi
Dew Point: 47°   Wind: 6mph
Humidity: 80%   Direction: 100°E
Pressure: 30.12"   Gusts: NA
Location:  35.38°N, 106.48°W
Report Text: KABQ 220852Z 10005KT 10SM FEW070 BKN085 BKN110 12/08 A3012 RMK AO2 SLP148 T01170083 52003
Loading
Personal Weather Stations






























Interactive Weather Map
Tropical Storm Tracking
New forecast layout! Learn more

10-Day Weather Forecast

Advertisements
Track Severe Weather on mobile